ADDS METAR Data INFO
IDs: Format: Raw Decoded Include TAF

Data at: 0050 UTC 22 Oct 2017

KGAI 212356Z AUTO 12004KT 10SM CLR 16/08 A3036 RMK AO2 SLP314 T01610083 10256 20161 53010
KGAI 212256Z AUTO 13003KT 10SM CLR 17/09 A3035 RMK AO2 SLP310 T01720089
KGAI 212156Z AUTO 00000KT 10SM CLR 19/08 A3034 RMK AO2 SLP305 T01890078
KGAI 212056Z AUTO 00000KT 10SM CLR 21/08 A3033 RMK AO2 SLP302 T02110078 55001
KGAI 211956Z AUTO 00000KT 10SM CLR 24/05 A3033 RMK AO2 SLP299 T02390050
KGAI 211856Z AUTO 00000KT 10SM CLR 24/06 A3032 RMK AO2 SLP296 T02440061
KGAI 211756Z AUTO 19003KT 10SM CLR 24/04 A3034 RMK AO2 SLP301 T02390044 10250 20067 58014
KGAI 211656Z AUTO VRB03KT 10SM CLR 24/06 A3036 RMK AO2 SLP307 T02440056
KGAI 211556Z AUTO 00000KT 10SM CLR 22/07 A3038 RMK AO2 SLP314 T02220072
KGAI 211456Z AUTO 00000KT 10SM CLR 21/06 A3038 RMK AO2 SLP316 T02060061 51012
KGAI 211356Z AUTO 00000KT 10SM CLR 18/10 A3038 RMK AO2 SLP315 T01830100
KGAI 211256Z AUTO 00000KT 10SM CLR 11/09 A3036 RMK AO2 SLP315 T01060094
KGAI 211156Z AUTO 00000KT 10SM CLR 07/06 A3034 RMK AO2 SLP308 T00670061 10083 20061 53016
KGAI 211056Z AUTO 00000KT 10SM CLR 07/06 A3032 RMK AO2 SLP300 T00670061
KGAI 210956Z AUTO 00000KT 10SM CLR 07/06 A3030 RMK AO2 SLP292 T00670061
KGAI 210856Z AUTO 00000KT 10SM CLR 07/06 A3029 RMK AO2 SLP288 T00670061 53005
KGAI 210756Z AUTO 00000KT 10SM CLR 07/06 A3028 RMK AO2 SLP284 T00670061
KGAI 210656Z AUTO 00000KT 10SM CLR 08/07 A3028 RMK AO2 SLP283 T00780067
KGAI 210556Z AUTO 00000KT 10SM CLR 08/07 A3028 RMK AO2 SLP282 T00830072 10133 20083 53006
KGAI 210456Z AUTO 00000KT 10SM CLR 09/08 A3027 RMK AO2 SLP279 T00890078 402330078
KGAI 210356Z AUTO 00000KT 10SM CLR 09/08 A3027 RMK AO2 SLP279 T00940083
KGAI 210256Z AUTO 00000KT 10SM CLR 10/08 A3026 RMK AO2 SLP277 T01000083 53009
KGAI 210156Z AUTO 00000KT 10SM CLR 11/08 A3025 RMK AO2 SLP275 T01110083
KGAI 210056Z AUTO 00000KT 10SM CLR 12/09 A3024 RMK AO2 SLP270 T01170089
KGAI 202356Z AUTO 00000KT 10SM CLR 13/09 A3023 RMK AO2 SLP270 T01280089 10233 20128 53009
KGAI 202256Z AUTO 00000KT 10SM CLR 16/08 A3022 RMK AO2 SLP265 T01610078
KGAI 202156Z AUTO 00000KT 10SM CLR 19/08 A3021 RMK AO2 SLP260 T01940078
KGAI 202056Z AUTO 31006KT 10SM CLR 22/08 A3021 RMK AO2 SLP257 T02170083 56008
KGAI 201956Z AUTO VRB04KT 10SM CLR 22/08 A3021 RMK AO2 SLP258 T02220078
KGAI 201856Z AUTO 29006KT 10SM CLR 22/07 A3021 RMK AO2 SLP259 T02220072
KGAI 201756Z AUTO 29007KT 10SM CLR 22/10 A3023 RMK AO2 SLP265 T02220100 10228 20089 58014
KGAI 201656Z AUTO 30006KT 10SM CLR 22/10 A3026 RMK AO2 SLP274 T02170100
KGAI 201556Z AUTO VRB03KT 10SM CLR 21/10 A3027 RMK AO2 SLP278 T02060100
KGAI 201456Z AUTO VRB05KT 10SM CLR 19/11 A3027 RMK AO2 SLP280 T01890111 51012
KGAI 201356Z AUTO 30005KT 10SM CLR 17/11 A3027 RMK AO2 SLP279 T01720111
KGAI 201256Z AUTO 28003KT 10SM CLR 13/11 A3026 RMK AO2 SLP277 T01330106